Terminal Aerodrome Forecast
Issued by NWS

Home | Current Version | Previous Version | Text Only | Print | Product List | Glossary On
Versions: 1 2 3 4 5 6 7 8 9 10 11 12 13 14 15
027
FTPA31 PHFO 291959 AAA
TAFHJR
TAF AMD
PHJR 291959Z 2920/3018 12010G15KT P6SM FEW030 SCT050
     FM300300 06005KT P6SM FEW030 SCT050=

USA.gov is the U.S. government's official web portal to all federal, state and local government web resources and services.